Time;durP1;ratioP1;P1;durP2;ratioP2;P2;SDS_P1;SDS_P2;PMS_P1;PMS_P2;Temp;Humidity;BMP_temperature;BMP_pressure;BME280_temperature;BME280_humidity;BME280_pressure;Samples;Min_cycle;Max_cycle;Signal;HPM_P1;HPM_P2
2023/01/07 00:02:13;;;;;;;1.57;1.50;;;11.90;54.80;;;;;;20653;6853;117319;-73
2023/01/07 00:04:39;;;;;;;1.60;1.50;;;11.70;54.30;;;;;;20686;6853;119336;-73
2023/01/07 00:07:04;;;;;;;1.77;1.47;;;11.60;54.60;;;;;;20681;6853;122464;-73
2023/01/07 00:09:30;;;;;;;1.98;1.87;;;11.50;54.80;;;;;;20453;6853;335266;-73
2023/01/07 00:11:55;;;;;;;2.13;2.03;;;11.70;54.90;;;;;;20457;6853;308986;-72
2023/01/07 00:14:21;;;;;;;2.08;1.98;;;12.10;54.50;;;;;;20477;6853;286536;-73
2023/01/07 00:16:47;;;;;;;1.90;1.80;;;12.40;53.40;;;;;;20687;6853;118456;-75
2023/01/07 00:19:13;;;;;;;1.80;1.70;;;12.30;53.30;;;;;;20692;6853;118341;-73
2023/01/07 00:21:38;;;;;;;2.03;1.92;;;12.10;53.70;;;;;;20473;6853;335762;-73
2023/01/07 00:24:04;;;;;;;2.10;2.00;;;12.20;53.60;;;;;;20675;6853;119425;-73
2023/01/07 00:26:30;;;;;;;1.93;1.60;;;12.20;53.50;;;;;;20681;6853;117499;-73
2023/01/07 00:28:55;;;;;;;2.15;2.00;;;12.00;53.70;;;;;;20469;6853;337685;-73
2023/01/07 00:31:28;;;;;;;2.10;2.00;;;12.10;53.70;;;;;;20693;6853;117384;-73
2023/01/07 00:36:19;;;;;;;1.95;1.85;;;11.90;53.70;;;;;;20715;6853;118347;-72
2023/01/07 00:38:45;;;;;;;2.08;1.98;;;11.60;54.10;;;;;;20687;6853;116471;-72
2023/01/07 00:41:11;;;;;;;1.90;1.80;;;11.60;54.10;;;;;;20696;6853;119617;-73
2023/01/07 00:43:36;;;;;;;1.97;1.87;;;11.50;54.40;;;;;;20693;6853;117436;-75
2023/01/07 00:46:03;;;;;;;2.40;2.20;;;11.40;54.70;;;;;;20675;6853;118576;-75
2023/01/07 00:48:29;;;;;;;1.70;1.60;;;11.30;54.80;;;;;;20682;6853;117883;-75
2023/01/07 00:50:54;;;;;;;2.20;2.10;;;11.20;54.70;;;;;;20693;6853;117711;-74
2023/01/07 00:53:20;;;;;;;2.08;1.98;;;11.20;54.90;;;;;;20689;6853;118498;-72
2023/01/07 00:55:49;;;;;;;2.30;2.20;;;11.10;55.00;;;;;;20688;6853;118156;-72
2023/01/07 00:58:14;;;;;;;2.30;2.10;;;11.10;55.10;;;;;;20478;6853;278651;-73
2023/01/07 01:00:40;;;;;;;2.15;2.05;;;11.40;55.50;;;;;;20473;6852;282847;-73
2023/01/07 01:03:07;;;;;;;2.20;2.10;;;11.80;54.60;;;;;;20489;6853;282893;-72
2023/01/07 01:05:33;;;;;;;2.10;2.00;;;12.20;54.00;;;;;;20489;6853;278181;-72
2023/01/07 01:07:58;;;;;;;2.00;1.90;;;12.50;53.40;;;;;;20673;6853;118547;-72
2023/01/07 01:10:24;;;;;;;1.80;1.70;;;12.40;53.40;;;;;;20703;6853;118231;-72
2023/01/07 01:12:49;;;;;;;1.53;1.50;;;12.10;53.80;;;;;;20698;6853;117203;-72
2023/01/07 01:15:16;;;;;;;1.70;1.60;;;12.00;54.10;;;;;;20484;6853;278534;-72
2023/01/07 01:17:41;;;;;;;1.73;1.63;;;11.90;54.00;;;;;;20704;6853;117705;-72
2023/01/07 01:20:07;;;;;;;1.87;1.77;;;12.00;53.90;;;;;;20474;6853;330544;-72
2023/01/07 01:22:32;;;;;;;1.90;1.80;;;12.10;53.80;;;;;;20483;6853;311581;-72
2023/01/07 01:24:58;;;;;;;1.80;1.70;;;12.40;53.70;;;;;;20702;6853;121232;-72
2023/01/07 01:27:23;;;;;;;1.40;1.40;;;12.30;53.40;;;;;;20700;6853;121104;-72
2023/01/07 01:29:49;;;;;;;1.90;1.80;;;12.10;53.70;;;;;;20489;6853;306256;-73
2023/01/07 01:32:14;;;;;;;2.00;1.90;;;12.10;53.40;;;;;;20702;6853;117516;-72
2023/01/07 01:34:40;;;;;;;2.47;2.37;;;12.10;53.30;;;;;;20484;6853;342279;-72
2023/01/07 01:37:06;;;;;;;2.23;2.13;;;12.20;53.30;;;;;;20692;6853;120602;-72
2023/01/07 01:39:31;;;;;;;2.10;2.00;;;12.10;53.30;;;;;;20695;6853;117832;-75
2023/01/07 01:41:57;;;;;;;2.10;2.00;;;11.90;53.60;;;;;;20458;6853;338606;-72
2023/01/07 01:44:45;;;;;;;2.50;2.10;;;12.00;53.70;;;;;;20478;6853;308944;-72
2023/01/07 01:47:12;;;;;;;2.67;2.50;;;12.60;52.20;;;;;;20477;6853;337648;-74
2023/01/07 01:49:37;;;;;;;1.93;1.83;;;12.60;52.20;;;;;;20680;6853;119230;-72
2023/01/07 01:52:16;;;;;;;2.10;2.00;;;12.20;52.60;;;;;;20665;6853;119495;-72
2023/01/07 01:54:45;;;;;;;2.87;2.67;;;12.10;52.50;;;;;;20470;6853;311982;-73
2023/01/07 01:57:10;;;;;;;2.80;2.60;;;12.20;52.70;;;;;;20679;6853;118321;-73
2023/01/07 01:59:36;;;;;;;2.80;2.70;;;12.10;52.70;;;;;;20475;6853;307654;-73
2023/01/07 02:02:02;;;;;;;2.70;2.50;;;12.10;52.30;;;;;;20634;6853;118389;-73
2023/01/07 02:04:29;;;;;;;2.60;2.50;;;12.20;52.00;;;;;;20487;6853;308556;-73
2023/01/07 02:06:55;;;;;;;2.70;2.60;;;12.20;52.00;;;;;;20692;6853;118443;-72
2023/01/07 02:09:20;;;;;;;1.80;1.70;;;12.10;52.10;;;;;;20684;6853;117362;-73
2023/01/07 02:12:15;;;;;;;2.23;2.13;;;11.90;52.50;;;;;;20687;6852;121190;-73
2023/01/07 02:14:51;;;;;;;2.10;2.00;;;11.70;52.70;;;;;;20478;6853;286019;-73
2023/01/07 02:17:33;;;;;;;2.20;2.10;;;11.90;51.50;;;;;;20436;6853;278988;-74
2023/01/07 02:20:09;;;;;;;2.10;2.00;;;12.10;50.80;;;;;;20650;6853;118254;-73
2023/01/07 02:23:01;;;;;;;1.80;1.70;;;12.10;50.80;;;;;;20657;6853;117843;-73
2023/01/07 02:26:03;;;;;;;1.63;1.53;;;11.90;51.30;;;;;;20688;6853;118615;-73
2023/01/07 02:28:48;;;;;;;1.80;1.70;;;11.60;51.60;;;;;;20493;6853;280945;-73
2023/01/07 02:31:17;;;;;;;1.80;1.70;;;11.80;51.40;;;;;;20450;6853;337899;-72
2023/01/07 02:33:59;;;;;;;1.70;1.70;;;12.10;51.30;;;;;;20461;6853;282977;-73
2023/01/07 02:36:38;;;;;;;1.77;1.67;;;12.40;50.00;;;;;;20275;6853;118247;-73
2023/01/07 02:39:04;;;;;;;1.80;1.70;;;12.20;50.10;;;;;;20456;6853;308160;-73
2023/01/07 02:41:49;;;;;;;1.60;1.60;;;12.30;50.10;;;;;;20476;6853;311504;-73
2023/01/07 02:44:44;;;;;;;1.52;1.52;;;12.50;49.60;;;;;;20479;6853;308959;-73
2023/01/07 02:47:29;;;;;;;1.30;1.30;;;12.70;49.00;;;;;;20465;6853;338155;-73
2023/01/07 02:49:55;;;;;;;2.57;1.03;;;12.80;48.40;;;;;;20641;6853;118809;-72
2023/01/07 02:52:21;;;;;;;1.10;1.10;;;12.50;48.70;;;;;;20477;6853;308147;-73
2023/01/07 02:54:46;;;;;;;0.90;0.90;;;12.50;48.50;;;;;;20663;6853;118620;-73
2023/01/07 02:57:51;;;;;;;1.00;1.00;;;12.30;48.70;;;;;;20661;6853;121646;-73
2023/01/07 03:00:20;;;;;;;0.90;0.90;;;12.00;48.80;;;;;;20485;6853;346143;-72
2023/01/07 03:03:02;;;;;;;1.00;1.00;;;12.10;47.20;;;;;;20466;6853;337575;-73
2023/01/07 03:05:48;;;;;;;1.00;1.00;;;12.30;46.70;;;;;;20672;6853;118881;-72
2023/01/07 03:08:21;;;;;;;1.03;1.03;;;12.20;47.10;;;;;;20659;6853;117897;-72
2023/01/07 03:10:46;;;;;;;1.05;1.05;;;11.90;47.80;;;;;;20421;6853;300592;-73
2023/01/07 03:13:12;;;;;;;0.95;0.95;;;12.00;48.80;;;;;;20657;6853;117711;-72
2023/01/07 03:16:01;;;;;;;1.07;1.07;;;12.10;48.60;;;;;;20465;6853;281572;-72
2023/01/07 03:18:26;;;;;;;1.00;1.00;;;12.10;48.60;;;;;;20595;6853;119983;-74
2023/01/07 03:20:52;;;;;;;0.90;0.90;;;12.00;48.70;;;;;;20469;6853;308990;-73
2023/01/07 03:23:18;;;;;;;1.15;1.15;;;12.10;49.00;;;;;;20464;6852;278374;-73
2023/01/07 03:25:43;;;;;;;0.90;0.90;;;12.30;49.20;;;;;;20475;6853;308557;-73
2023/01/07 03:28:09;;;;;;;1.10;1.10;;;12.60;49.10;;;;;;20463;6853;281943;-73
2023/01/07 03:30:34;;;;;;;1.30;1.30;;;12.80;48.30;;;;;;20481;6853;278973;-73
2023/01/07 03:33:00;;;;;;;1.20;1.20;;;12.90;47.50;;;;;;20698;6853;118018;-73
2023/01/07 03:35:25;;;;;;;1.30;1.30;;;12.60;47.80;;;;;;20466;6853;337772;-73
2023/01/07 03:37:51;;;;;;;1.10;1.10;;;12.60;47.40;;;;;;20679;6853;121598;-73
2023/01/07 03:40:16;;;;;;;1.20;1.20;;;12.40;47.70;;;;;;20689;6853;120948;-73
2023/01/07 03:42:44;;;;;;;1.40;1.30;;;12.10;48.20;;;;;;20480;6853;282805;-73
2023/01/07 03:45:08;;;;;;;6.10;1.27;;;12.20;48.50;;;;;;20679;6853;117497;-73
2023/01/07 03:47:33;;;;;;;1.50;1.40;;;12.10;48.60;;;;;;20682;6853;118905;-73
2023/01/07 03:50:00;;;;;;;2.85;2.72;;;11.90;49.20;;;;;;20456;6853;324105;-73
2023/01/07 03:52:25;;;;;;;1.80;1.70;;;11.90;49.20;;;;;;20690;6853;118928;-73
2023/01/07 03:54:51;;;;;;;1.50;1.40;;;11.90;49.20;;;;;;20687;6853;117490;-74
2023/01/07 03:57:16;;;;;;;1.50;1.50;;;11.70;49.50;;;;;;20485;6853;279365;-73
2023/01/07 03:59:43;;;;;;;1.80;1.70;;;12.10;49.40;;;;;;20476;6853;278087;-73
2023/01/07 04:02:08;;;;;;;1.70;1.60;;;12.10;49.40;;;;;;20470;6853;285657;-73
2023/01/07 04:04:36;;;;;;;1.70;1.60;;;12.50;48.40;;;;;;20485;6853;317269;-73
2023/01/07 04:07:01;;;;;;;1.97;1.87;;;12.50;48.40;;;;;;20689;6853;117623;-73
2023/01/07 04:09:27;;;;;;;1.70;1.60;;;12.30;48.50;;;;;;20694;6853;117889;-73
2023/01/07 04:11:52;;;;;;;30.07;27.43;;;12.00;49.10;;;;;;20457;6853;311445;-74
2023/01/07 04:14:18;;;;;;;3.57;3.37;;;12.00;49.40;;;;;;20714;6845;120897;-73
2023/01/07 04:16:44;;;;;;;1.55;1.55;;;11.70;49.80;;;;;;20742;6838;123526;-73
2023/01/07 04:19:10;;;;;;;1.43;1.37;;;11.60;49.70;;;;;;20717;6845;117701;-73
2023/01/07 04:21:35;;;;;;;1.60;1.50;;;11.40;50.00;;;;;;20528;6838;278379;-73
2023/01/07 04:24:01;;;;;;;2.08;1.95;;;11.60;49.80;;;;;;20489;6845;278111;-73
2023/01/07 04:26:27;;;;;;;1.70;1.63;;;11.80;49.30;;;;;;20690;6853;121110;-73
2023/01/07 04:28:52;;;;;;;1.55;1.55;;;11.80;49.30;;;;;;20693;6853;118453;-73
2023/01/07 04:31:18;;;;;;;1.70;1.60;;;11.60;49.60;;;;;;20476;6853;312959;-73
2023/01/07 04:33:43;;;;;;;1.43;1.33;;;11.70;49.60;;;;;;20691;6853;117387;-73
2023/01/07 04:36:10;;;;;;;1.90;1.80;;;11.60;49.80;;;;;;20473;6851;308120;-73
2023/01/07 04:38:34;;;;;;;1.47;1.47;;;11.70;49.40;;;;;;20697;6853;117461;-73
2023/01/07 04:41:00;;;;;;;1.65;1.65;;;11.70;49.40;;;;;;20707;6853;123363;-73
2023/01/07 04:43:25;;;;;;;2.00;1.90;;;11.50;49.70;;;;;;20702;6853;117487;-72
2023/01/07 04:45:51;;;;;;;1.50;1.50;;;11.30;50.00;;;;;;20669;6853;119878;-76
2023/01/07 04:48:17;;;;;;;2.40;2.30;;;11.20;50.30;;;;;;20692;6853;117834;-73
2023/01/07 04:50:43;;;;;;;2.35;2.15;;;10.90;50.60;;;;;;20684;6853;117841;-73
2023/01/07 04:53:08;;;;;;;2.00;1.90;;;10.90;50.60;;;;;;20477;6853;308259;-73
2023/01/07 04:55:35;;;;;;;1.73;1.73;;;11.20;50.20;;;;;;20695;6853;117539;-73
2023/01/07 04:58:00;;;;;;;2.10;2.00;;;11.20;50.20;;;;;;20674;6853;118571;-73
2023/01/07 05:00:27;;;;;;;2.10;1.90;;;11.00;50.60;;;;;;20696;6853;117455;-73
2023/01/07 05:02:52;;;;;;;2.10;2.00;;;11.00;50.50;;;;;;20695;6853;117333;-73
2023/01/07 05:05:18;;;;;;;1.80;1.70;;;10.90;50.80;;;;;;20700;6853;118982;-73
2023/01/07 05:07:43;;;;;;;2.00;1.90;;;10.80;50.90;;;;;;20482;6853;278558;-73
2023/01/07 05:10:09;;;;;;;1.43;1.33;;;11.10;50.70;;;;;;20668;6853;123533;-73
2023/01/07 05:12:34;;;;;;;1.60;1.50;;;11.20;50.60;;;;;;20474;6853;308473;-73
2023/01/07 05:15:03;;;;;;;1.20;1.20;;;11.40;50.40;;;;;;20687;6853;117930;-73
2023/01/07 05:17:29;;;;;;;1.35;1.25;;;11.40;50.20;;;;;;20469;6853;278531;-72
2023/01/07 05:19:54;;;;;;;1.33;1.33;;;11.50;50.40;;;;;;20460;6853;341924;-71
2023/01/07 05:22:20;;;;;;;1.20;1.20;;;11.80;50.00;;;;;;20688;6853;119153;-72
2023/01/07 05:24:45;;;;;;;1.60;1.47;;;11.70;49.90;;;;;;20472;6853;308488;-72
2023/01/07 05:27:11;;;;;;;1.10;1.10;;;11.80;50.00;;;;;;20692;6853;117390;-72
2023/01/07 05:29:37;;;;;;;1.12;1.12;;;11.70;49.90;;;;;;20473;6853;337941;-72
2023/01/07 05:32:02;;;;;;;1.30;1.30;;;11.80;49.80;;;;;;20672;6853;121290;-72
2023/01/07 05:34:29;;;;;;;1.30;1.20;;;11.80;50.20;;;;;;20473;6853;337588;-73
2023/01/07 05:36:54;;;;;;;1.37;1.27;;;11.80;49.50;;;;;;20471;6853;312313;-73
2023/01/07 05:39:20;;;;;;;1.10;1.10;;;11.90;48.80;;;;;;20693;6853;117997;-72
2023/01/07 05:41:46;;;;;;;1.10;1.10;;;11.90;48.80;;;;;;20691;6853;118742;-72
2023/01/07 05:44:12;;;;;;;0.90;0.90;;;11.60;49.20;;;;;;20464;6853;283003;-72
2023/01/07 05:46:37;;;;;;;0.80;0.80;;;11.70;49.30;;;;;;20696;6852;118486;-72
2023/01/07 05:49:03;;;;;;;1.05;1.05;;;11.60;49.20;;;;;;20481;6853;337537;-72
2023/01/07 05:51:28;;;;;;;1.00;1.00;;;11.70;49.10;;;;;;20688;6853;117366;-73
2023/01/07 05:53:54;;;;;;;1.10;1.10;;;11.60;49.10;;;;;;20461;6853;278473;-72
2023/01/07 05:56:19;;;;;;;1.20;1.10;;;11.60;48.40;;;;;;20696;6853;119415;-72
2023/01/07 05:58:45;;;;;;;1.10;1.10;;;11.60;48.70;;;;;;20476;6853;278524;-72
2023/01/07 06:01:10;;;;;;;1.23;0.70;;;11.60;48.40;;;;;;20694;6853;117876;-72
2023/01/07 06:03:36;;;;;;;1.67;0.90;;;11.50;48.60;;;;;;20702;6853;117351;-72
2023/01/07 06:06:05;;;;;;;0.93;0.93;;;11.30;49.00;;;;;;20464;6853;279346;-72
2023/01/07 06:08:29;;;;;;;1.00;1.00;;;11.40;48.70;;;;;;20464;6853;309860;-72
2023/01/07 06:10:54;;;;;;;0.87;0.87;;;11.70;48.20;;;;;;20680;6853;118910;-72
2023/01/07 06:13:21;;;;;;;0.90;0.90;;;11.70;48.70;;;;;;20460;6853;325070;-72
2023/01/07 06:15:46;;;;;;;0.80;0.80;;;11.70;48.40;;;;;;20474;6853;312225;-72
2023/01/07 06:18:14;;;;;;;0.80;0.80;;;12.10;47.30;;;;;;20451;6853;311273;-73
2023/01/07 06:20:40;;;;;;;0.50;0.50;;;12.10;47.30;;;;;;20683;6853;117695;-73
2023/01/07 06:23:05;;;;;;;0.93;0.93;;;11.90;47.50;;;;;;20476;6853;321719;-73
2023/01/07 06:25:31;;;;;;;0.70;0.70;;;11.90;47.50;;;;;;20476;6853;319349;-74
2023/01/07 06:27:57;;;;;;;0.95;0.95;;;12.10;47.40;;;;;;20452;6853;280573;-73
2023/01/07 06:30:22;;;;;;;0.90;0.90;;;12.20;47.10;;;;;;20704;6853;117922;-73
2023/01/07 06:32:47;;;;;;;0.80;0.80;;;12.00;47.30;;;;;;20493;6853;311659;-73
2023/01/07 06:35:13;;;;;;;0.88;0.88;;;12.00;47.40;;;;;;20489;6853;308077;-73
2023/01/07 06:37:38;;;;;;;0.70;0.70;;;12.20;47.10;;;;;;20693;6853;117374;-73
2023/01/07 06:40:04;;;;;;;0.80;0.80;;;12.00;47.20;;;;;;20675;6853;117976;-73
2023/01/07 06:42:30;;;;;;;1.00;1.00;;;11.70;47.70;;;;;;20479;6853;277537;-75
2023/01/07 06:44:55;;;;;;;22.33;17.42;;;11.70;47.70;;;;;;20694;6853;117880;-74
2023/01/07 06:47:22;;;;;;;2.10;2.00;;;11.40;48.10;;;;;;20719;6845;121284;-76
2023/01/07 06:49:47;;;;;;;0.90;0.90;;;11.40;48.10;;;;;;20710;6845;121180;-75
2023/01/07 06:52:13;;;;;;;0.90;0.90;;;11.20;48.40;;;;;;20690;6838;118041;-73
2023/01/07 06:54:38;;;;;;;1.20;1.20;;;11.00;48.60;;;;;;20464;6845;278753;-74
2023/01/07 06:57:04;;;;;;;0.83;0.83;;;11.20;48.90;;;;;;20508;6845;303493;-74
2023/01/07 06:59:31;;;;;;;0.90;0.90;;;11.50;48.50;;;;;;20700;6851;117031;-73
2023/01/07 07:01:56;;;;;;;0.83;0.83;;;11.50;48.30;;;;;;20474;6853;284391;-74
2023/01/07 07:04:23;;;;;;;0.63;0.63;;;11.60;48.50;;;;;;20700;6853;118545;-74
2023/01/07 07:06:48;;;;;;;0.60;0.60;;;11.60;48.50;;;;;;20691;6853;117675;-74
2023/01/07 07:09:14;;;;;;;1.12;1.12;;;11.30;48.60;;;;;;20486;6853;308152;-73
2023/01/07 07:11:40;;;;;;;1.00;1.00;;;11.50;48.80;;;;;;20697;6853;118133;-73
2023/01/07 07:14:05;;;;;;;1.00;1.00;;;11.40;48.80;;;;;;20468;6853;280191;-73
2023/01/07 07:16:31;;;;;;;2.27;1.80;;;11.60;48.70;;;;;;20482;6853;282115;-72
2023/01/07 07:18:57;;;;;;;2.10;1.90;;;11.80;47.70;;;;;;20468;6853;312855;-73
2023/01/07 07:21:23;;;;;;;0.80;0.80;;;12.00;47.00;;;;;;20621;6853;121493;-76
2023/01/07 07:23:52;;;;;;;1.10;1.10;;;11.60;47.70;;;;;;20685;6853;120405;-74
2023/01/07 07:26:18;;;;;;;2.03;1.93;;;11.60;47.70;;;;;;20682;6853;117497;-73
2023/01/07 07:28:44;;;;;;;3.37;3.08;;;11.30;48.10;;;;;;20697;6853;117262;-74
2023/01/07 07:31:09;;;;;;;3.20;3.10;;;11.10;48.50;;;;;;20483;6853;341846;-71
2023/01/07 07:33:35;;;;;;;3.20;3.00;;;11.20;49.60;;;;;;20683;6853;117669;-73
2023/01/07 07:36:00;;;;;;;2.63;2.47;;;11.20;49.40;;;;;;20680;6853;117451;-72
2023/01/07 07:38:26;;;;;;;2.70;2.60;;;11.10;49.60;;;;;;20473;6853;322225;-71
2023/01/07 07:40:52;;;;;;;2.50;2.40;;;11.20;49.70;;;;;;20476;6853;334155;-73
2023/01/07 07:43:17;;;;;;;2.30;2.20;;;11.60;49.50;;;;;;20692;6853;117197;-74
2023/01/07 07:45:43;;;;;;;2.20;2.10;;;11.60;49.40;;;;;;20655;6853;120113;-72
2023/01/07 07:48:08;;;;;;;2.07;1.90;;;11.30;49.40;;;;;;20673;6853;118159;-73
2023/01/07 07:50:34;;;;;;;2.20;2.10;;;11.10;49.60;;;;;;20695;6853;117545;-75
2023/01/07 07:52:59;;;;;;;2.10;2.00;;;11.00;49.90;;;;;;20703;6853;117337;-70
2023/01/07 07:55:26;;;;;;;1.90;1.80;;;10.80;50.20;;;;;;20696;6853;118104;-71
2023/01/07 07:57:51;;;;;;;2.00;1.90;;;10.80;50.20;;;;;;20675;6853;117795;-70
2023/01/07 08:00:17;;;;;;;1.40;1.40;;;10.70;50.30;;;;;;20696;6853;117525;-72
2023/01/07 08:02:43;;;;;;;1.77;1.67;;;10.80;50.10;;;;;;20487;6853;279087;-71
2023/01/07 08:05:10;;;;;;;1.67;1.58;;;10.80;49.80;;;;;;20484;6853;278473;-72
2023/01/07 08:07:34;;;;;;;1.50;1.50;;;11.30;49.20;;;;;;20478;6853;279406;-71
2023/01/07 08:10:01;;;;;;;1.80;1.70;;;11.90;48.00;;;;;;20462;6851;307811;-71
2023/01/07 08:12:26;;;;;;;1.43;1.37;;;11.80;47.90;;;;;;20681;6853;117698;-71
2023/01/07 08:14:52;;;;;;;2.00;1.60;;;11.70;47.90;;;;;;20483;6853;309031;-71
2023/01/07 08:17:17;;;;;;;2.80;2.70;;;11.80;48.30;;;;;;20478;6853;309905;-71
2023/01/07 08:19:43;;;;;;;2.12;2.03;;;12.00;47.90;;;;;;20687;6853;117825;-71
2023/01/07 08:22:08;;;;;;;2.00;1.90;;;11.80;48.00;;;;;;20680;6853;123354;-71
2023/01/07 08:24:34;;;;;;;2.92;2.72;;;11.60;48.40;;;;;;20476;6853;342647;-71
2023/01/07 08:27:00;;;;;;;3.20;3.00;;;11.70;48.80;;;;;;20695;6853;117588;-73
2023/01/07 08:29:25;;;;;;;2.50;2.40;;;11.60;48.80;;;;;;20466;6853;339644;-72
2023/01/07 08:31:51;;;;;;;2.60;2.50;;;11.70;48.60;;;;;;20463;6853;308127;-72
2023/01/07 08:34:16;;;;;;;2.90;2.80;;;12.00;48.60;;;;;;20478;6853;308948;-73
2023/01/07 08:36:42;;;;;;;2.70;2.60;;;12.20;48.20;;;;;;20480;6853;326184;-73
2023/01/07 08:39:07;;;;;;;2.80;2.70;;;12.40;47.90;;;;;;20481;6853;308198;-73
2023/01/07 08:41:33;;;;;;;2.65;2.55;;;12.60;47.20;;;;;;20482;6853;308650;-73
2023/01/07 08:43:59;;;;;;;2.50;2.40;;;12.80;46.80;;;;;;20461;6853;337693;-73
2023/01/07 08:46:25;;;;;;;2.10;2.00;;;12.80;46.70;;;;;;20702;6853;118671;-73
2023/01/07 08:48:51;;;;;;;2.60;2.50;;;12.50;47.30;;;;;;20479;6853;307690;-76
2023/01/07 08:51:17;;;;;;;2.30;2.20;;;12.50;47.30;;;;;;20477;6853;308537;-73
2023/01/07 08:53:42;;;;;;;2.30;2.20;;;12.70;47.00;;;;;;20683;6853;117292;-72
2023/01/07 08:56:08;;;;;;;2.53;2.40;;;12.50;47.10;;;;;;20466;6853;279909;-73
2023/01/07 08:58:34;;;;;;;2.60;2.50;;;12.70;47.20;;;;;;20481;6853;283644;-72
2023/01/07 09:01:04;;;;;;;2.27;2.17;;;12.70;47.20;;;;;;20685;6853;117587;-74
2023/01/07 09:03:29;;;;;;;3.10;3.00;;;12.50;47.30;;;;;;20473;6853;305801;-73
2023/01/07 09:05:54;;;;;;;3.00;2.80;;;12.50;47.50;;;;;;20455;6853;278554;-74
2023/01/07 09:08:21;;;;;;;3.10;2.90;;;12.90;47.10;;;;;;20477;6853;310375;-74
2023/01/07 09:10:46;;;;;;;3.20;3.00;;;12.90;47.10;;;;;;20471;6853;303314;-74
2023/01/07 09:13:12;;;;;;;3.53;3.33;;;13.00;47.20;;;;;;20472;6853;312220;-74
2023/01/07 09:15:37;;;;;;;4.23;3.83;;;13.10;47.00;;;;;;20693;6853;117334;-73
2023/01/07 09:18:05;;;;;;;25.60;22.98;;;12.90;47.10;;;;;;20669;6853;146216;-73
2023/01/07 09:20:32;;;;;;;7.13;6.73;;;12.60;47.70;;;;;;20694;6853;118193;-77
2023/01/07 09:22:57;;;;;;;4.37;4.17;;;12.30;48.20;;;;;;20692;6852;117230;-73
2023/01/07 09:25:23;;;;;;;3.77;3.57;;;12.00;48.60;;;;;;20693;6853;117407;-72
2023/01/07 09:27:48;;;;;;;3.87;3.60;;;11.90;49.00;;;;;;20691;6853;117434;-73
2023/01/07 09:30:17;;;;;;;4.30;4.03;;;11.70;49.20;;;;;;20457;6853;308201;-75
2023/01/07 09:32:42;;;;;;;4.03;3.83;;;11.80;49.20;;;;;;20686;6853;121920;-71
2023/01/07 09:35:14;;;;;;;4.32;4.12;;;11.90;49.10;;;;;;20504;6853;337991;-74
2023/01/07 09:37:40;;;;;;;3.60;3.40;;;12.00;49.40;;;;;;20709;6853;117252;-75
2023/01/07 09:40:07;;;;;;;2.97;2.87;;;12.00;49.20;;;;;;20724;6853;68333;-74
2023/01/07 09:42:39;;;;;;;2.67;2.58;;;11.90;49.40;;;;;;20460;6853;279317;-74
2023/01/07 09:45:11;;;;;;;1.97;1.93;;;12.00;49.00;;;;;;20654;6853;117773;-74
2023/01/07 09:47:37;;;;;;;2.40;2.30;;;12.00;48.90;;;;;;20068;6853;119152;-75
2023/01/07 09:50:16;;;;;;;2.40;2.30;;;11.60;49.50;;;;;;20688;6853;117963;-74
2023/01/07 09:52:42;;;;;;;2.20;2.10;;;11.70;49.50;;;;;;20374;6853;118601;-79
2023/01/07 09:55:18;;;;;;;2.80;2.70;;;11.50;49.70;;;;;;20453;6853;312497;-75
2023/01/07 09:57:43;;;;;;;2.80;2.70;;;11.70;49.80;;;;;;20456;6853;308091;-75
2023/01/07 10:00:09;;;;;;;3.12;2.92;;;12.10;49.20;;;;;;20685;6853;119610;-78
2023/01/07 10:02:58;;;;;;;2.67;2.47;;;12.20;49.00;;;;;;20647;6853;118147;-75
2023/01/07 10:05:59;;;;;;;2.97;2.77;;;12.00;49.20;;;;;;20665;6853;118131;-73
2023/01/07 10:08:29;;;;;;;3.53;3.33;;;11.80;49.60;;;;;;19846;6853;278681;-73
2023/01/07 10:11:21;;;;;;;3.50;3.20;;;12.20;49.80;;;;;;20470;6853;115889;-74
2023/01/07 10:13:54;;;;;;;3.10;2.90;;;12.30;49.50;;;;;;20653;6853;116807;-74
2023/01/07 10:16:33;;;;;;;3.22;3.12;;;12.60;49.30;;;;;;20474;6853;342330;-74
2023/01/07 10:19:12;;;;;;;3.70;3.50;;;12.60;49.30;;;;;;20471;6853;311536;-75
2023/01/07 10:21:39;;;;;;;3.87;3.67;;;13.50;48.00;;;;;;20461;6853;308435;-74
2023/01/07 10:24:07;;;;;;;3.40;3.20;;;13.50;48.00;;;;;;20664;6853;118218;-76
2023/01/07 10:26:33;;;;;;;4.17;3.97;;;13.50;47.90;;;;;;20651;6853;118001;-75
2023/01/07 10:29:11;;;;;;;4.93;4.63;;;13.40;48.20;;;;;;20399;6853;308530;-75
2023/01/07 10:31:37;;;;;;;5.00;4.70;;;13.50;47.50;;;;;;20452;6853;320169;-75
2023/01/07 10:34:03;;;;;;;5.07;4.80;;;14.10;46.30;;;;;;20487;6852;308511;-75
2023/01/07 10:36:33;;;;;;;4.70;4.40;;;14.10;46.30;;;;;;20673;6853;117680;-75
2023/01/07 10:39:17;;;;;;;5.50;5.10;;;14.10;46.50;;;;;;20673;6853;117262;-77
2023/01/07 10:41:49;;;;;;;5.03;4.73;;;14.00;47.00;;;;;;19621;7215;119468;-77
2023/01/07 10:44:45;;;;;;;5.07;4.78;;;13.80;47.10;;;;;;20526;6830;276672;-77
2023/01/07 10:47:26;;;;;;;4.87;4.57;;;13.80;46.00;;;;;;19249;7157;120439;-79
2023/01/07 10:49:56;;;;;;;9.20;8.50;;;13.90;46.10;;;;;;20133;6838;292303;-78
2023/01/07 10:52:31;;;;;;;4.77;4.50;;;13.90;46.10;;;;;;20733;6838;117523;-77
2023/01/07 10:55:16;;;;;;;4.67;4.37;;;13.90;46.10;;;;;;20732;6838;117173;-77
2023/01/07 10:57:42;;;;;;;4.50;4.20;;;13.80;46.60;;;;;;20768;6838;117065;-77
2023/01/07 11:00:08;;;;;;;4.18;3.97;;;13.60;46.70;;;;;;20727;6838;116959;-77
2023/01/07 11:02:33;;;;;;;4.40;4.10;;;13.50;47.10;;;;;;20726;6838;120702;-77
2023/01/07 11:04:59;;;;;;;4.23;4.03;;;13.50;47.20;;;;;;20746;6838;117730;-75
2023/01/07 11:07:47;;;;;;;4.20;3.90;;;13.50;47.30;;;;;;20746;6838;116429;-76
2023/01/07 11:10:19;;;;;;;3.90;3.70;;;13.40;47.20;;;;;;20496;6838;312885;-77
2023/01/07 11:12:58;;;;;;;4.23;4.03;;;13.70;45.50;;;;;;20529;6838;277627;-76
2023/01/07 11:15:30;;;;;;;3.67;3.47;;;14.10;44.70;;;;;;20737;6838;117237;-76
2023/01/07 11:18:02;;;;;;;3.67;3.50;;;14.10;44.90;;;;;;20505;6838;278362;-76
2023/01/07 11:20:45;;;;;;;3.63;3.43;;;14.30;44.10;;;;;;20521;6838;335963;-76
2023/01/07 11:23:32;;;;;;;3.97;3.77;;;14.50;43.90;;;;;;20738;6838;117398;-73
2023/01/07 11:26:23;;;;;;;3.33;3.13;;;14.50;43.90;;;;;;20718;6838;117540;-72
2023/01/07 11:28:55;;;;;;;3.73;3.53;;;14.30;44.40;;;;;;20739;6838;117197;-73
2023/01/07 11:31:21;;;;;;;3.17;3.07;;;14.00;44.80;;;;;;20725;6838;117336;-72
2023/01/07 11:33:46;;;;;;;4.00;3.70;;;13.90;45.20;;;;;;20740;6838;117127;-73
2023/01/07 11:36:13;;;;;;;3.90;3.60;;;13.70;45.60;;;;;;20713;6838;117401;-72
2023/01/07 11:38:38;;;;;;;3.80;3.60;;;13.60;45.50;;;;;;20531;6838;307331;-75
2023/01/07 11:41:04;;;;;;;4.27;4.07;;;13.80;44.50;;;;;;20533;6838;307862;-77
2023/01/07 11:43:32;;;;;;;4.32;4.12;;;14.20;44.20;;;;;;20525;6838;309140;-75
2023/01/07 11:45:58;;;;;;;5.10;4.80;;;14.50;43.80;;;;;;20501;6836;307937;-77
2023/01/07 11:48:27;;;;;;;4.53;4.32;;;14.70;43.70;;;;;;20734;6838;118829;-77
2023/01/07 11:50:52;;;;;;;4.70;4.50;;;14.60;43.80;;;;;;20533;6838;279070;-73
2023/01/07 11:53:18;;;;;;;4.70;4.40;;;14.60;43.20;;;;;;20531;6838;294368;-73
2023/01/07 11:55:54;;;;;;;4.97;4.67;;;14.70;42.70;;;;;;20538;6838;279332;-73
2023/01/07 11:58:19;;;;;;;4.80;4.50;;;14.80;42.30;;;;;;20526;6838;281146;-73
2023/01/07 12:00:46;;;;;;;4.40;4.20;;;14.80;43.00;;;;;;20739;6838;117288;-73
2023/01/07 12:03:11;;;;;;;4.07;3.87;;;14.70;42.90;;;;;;20677;6838;118476;-74
2023/01/07 12:05:37;;;;;;;4.60;4.40;;;14.40;43.30;;;;;;20527;6838;307180;-75
2023/01/07 12:08:04;;;;;;;4.23;4.03;;;14.30;44.20;;;;;;20717;6838;117120;-75
2023/01/07 12:10:33;;;;;;;3.87;3.67;;;14.20;43.50;;;;;;20738;6838;117490;-78
2023/01/07 12:13:01;;;;;;;4.62;4.43;;;14.00;43.90;;;;;;20515;6838;336481;-79
2023/01/07 12:15:26;;;;;;;4.60;4.30;;;14.10;44.10;;;;;;20745;6838;117111;-78
2023/01/07 12:18:05;;;;;;;4.55;4.25;;;14.10;44.30;;;;;;20729;6838;117329;-76
2023/01/07 12:20:58;;;;;;;4.50;4.30;;;13.80;44.20;;;;;;20442;6838;278025;-81
2023/01/07 12:23:24;;;;;;;4.50;4.30;;;13.90;43.60;;;;;;20520;6838;308193;-80
2023/01/07 12:25:59;;;;;;;4.35;4.15;;;14.20;43.70;;;;;;20671;6838;117151;-79
2023/01/07 12:28:28;;;;;;;4.23;3.93;;;13.90;44.00;;;;;;20731;6838;121146;-80
2023/01/07 12:31:15;;;;;;;3.93;3.73;;;13.70;44.10;;;;;;20701;6838;121407;-80
2023/01/07 12:34:00;;;;;;;4.43;4.23;;;13.60;44.00;;;;;;20531;6838;306638;-80
2023/01/07 12:36:32;;;;;;;4.63;4.23;;;13.80;43.70;;;;;;20728;6838;117253;-77
2023/01/07 12:38:57;;;;;;;3.73;3.53;;;13.70;43.90;;;;;;20733;6838;117623;-81
2023/01/07 12:41:23;;;;;;;4.22;3.92;;;13.60;44.20;;;;;;20750;6838;117812;-82
2023/01/07 12:43:55;;;;;;;3.80;3.60;;;13.40;44.30;;;;;;20738;6838;118070;-79
2023/01/07 12:46:22;;;;;;;4.30;4.00;;;13.30;44.80;;;;;;20522;6838;277663;-79